createdAt,value
2022-12-23T00:01:26.551Z,5.90
2022-12-23T00:03:58.566Z,5.90
2022-12-23T00:08:58.600Z,6.10
2022-12-23T00:11:29.592Z,6.00
2022-12-23T00:14:21.188Z,6.00
2022-12-23T00:16:50.648Z,6.10
2022-12-23T00:19:20.453Z,6.10
2022-12-23T00:21:49.119Z,6.40
2022-12-23T00:24:17.318Z,6.80
2022-12-23T00:26:46.861Z,6.20
2022-12-23T00:34:13.388Z,6.30
2022-12-23T00:39:27.450Z,6.40
2022-12-23T00:42:14.641Z,6.40
2022-12-23T00:57:26.239Z,6.50
2022-12-23T00:59:54.394Z,6.40
2022-12-23T01:05:37.586Z,6.40
2022-12-23T01:10:36.190Z,6.60
2022-12-23T01:13:06.280Z,6.60
2022-12-23T01:30:26.617Z,6.50
2022-12-23T01:40:20.211Z,6.80
2022-12-23T01:45:18.355Z,6.70
2022-12-23T01:47:51.544Z,6.70
2022-12-23T01:50:23.687Z,6.70
2022-12-23T01:53:00.475Z,6.70
2022-12-23T01:55:38.143Z,6.10
2022-12-23T01:58:11.355Z,7.00
2022-12-23T02:00:58.539Z,6.70
2022-12-23T02:03:43.831Z,6.70
2022-12-23T02:06:34.143Z,6.50
2022-12-23T02:09:20.757Z,6.70
2022-12-23T02:12:27.427Z,6.80
2022-12-23T02:15:27.347Z,6.60
2022-12-23T02:18:07.361Z,6.20
2022-12-23T02:21:12.021Z,6.70
2022-12-23T02:24:21.218Z,6.70
2022-12-23T02:27:11.653Z,6.40
2022-12-23T02:30:14.557Z,6.60
2022-12-23T02:32:56.692Z,6.70
2022-12-23T02:35:31.583Z,6.60
2022-12-23T02:38:09.857Z,7.40
2022-12-23T02:40:44.786Z,6.60
2022-12-23T02:43:18.622Z,6.70
2022-12-23T02:45:55.086Z,6.70
2022-12-23T02:48:32.844Z,6.70
2022-12-23T02:53:34.877Z,6.70
2022-12-23T02:56:04.579Z,6.70
2022-12-23T02:58:37.339Z,6.60
2022-12-23T03:01:07.221Z,6.90
2022-12-23T03:03:39.162Z,6.90
2022-12-23T03:06:18.331Z,6.60
2022-12-23T03:08:47.260Z,6.70
2022-12-23T03:11:17.006Z,6.70
2022-12-23T03:14:10.908Z,7.50
2022-12-23T03:16:49.011Z,6.60
2022-12-23T03:19:27.067Z,6.60
2022-12-23T03:22:06.136Z,6.70
2022-12-23T03:24:56.879Z,7.30
2022-12-23T03:27:29.074Z,6.60
2022-12-23T03:30:01.873Z,6.70
2022-12-23T03:32:34.768Z,6.70
2022-12-23T03:35:08.647Z,6.70
2022-12-23T03:37:39.942Z,6.80
2022-12-23T03:40:13.134Z,7.20
2022-12-23T03:42:46.629Z,6.70
2022-12-23T03:45:38.125Z,6.60
2022-12-23T03:48:09.077Z,6.80
2022-12-23T03:50:41.592Z,6.60
2022-12-23T03:53:13.148Z,7.10
2022-12-23T03:55:48.025Z,6.60
2022-12-23T03:58:23.589Z,6.60
2022-12-23T04:00:59.369Z,6.60
2022-12-23T04:03:36.928Z,6.50
2022-12-23T04:06:09.276Z,6.50
2022-12-23T04:08:39.943Z,6.50
2022-12-23T04:16:05.906Z,6.60
2022-12-23T04:18:34.607Z,6.30
2022-12-23T04:23:32.590Z,6.20
2022-12-23T04:26:00.737Z,6.60
2022-12-23T04:30:57.315Z,6.20
2022-12-23T04:35:53.978Z,6.50
2022-12-23T04:40:51.986Z,6.10
2022-12-23T04:43:20.125Z,6.10
2022-12-23T04:45:51.962Z,6.30
2022-12-23T04:48:20.727Z,5.90
2022-12-23T04:50:48.927Z,5.90
2022-12-23T04:53:17.239Z,6.00
2022-12-23T04:55:45.508Z,6.00
2022-12-23T04:58:15.120Z,5.90
2022-12-23T05:00:43.369Z,5.50
2022-12-23T05:03:11.708Z,6.00
2022-12-23T05:05:44.589Z,5.80
2022-12-23T05:13:09.647Z,5.80
2022-12-23T05:15:39.269Z,5.70
2022-12-23T05:23:04.356Z,5.70
2022-12-23T05:25:34.152Z,6.00
2022-12-23T05:33:00.537Z,5.60
2022-12-23T05:35:29.508Z,5.70
2022-12-23T05:50:26.025Z,5.50
2022-12-23T06:00:22.204Z,4.90
2022-12-23T06:07:52.711Z,5.60
2022-12-23T06:25:18.841Z,5.60
2022-12-23T06:30:16.099Z,5.60
2022-12-23T06:40:11.369Z,5.40
2022-12-23T06:42:40.928Z,5.40
2022-12-23T06:45:10.449Z,5.50
2022-12-23T06:50:09.060Z,5.30
2022-12-23T06:55:06.515Z,5.10
2022-12-23T07:00:05.169Z,5.20
2022-12-23T07:17:27.142Z,5.20
2022-12-23T07:27:20.665Z,5.10
2022-12-23T07:34:47.039Z,5.20
2022-12-23T07:49:59.836Z,5.10
2022-12-23T08:07:23.582Z,5.20
2022-12-23T08:09:51.765Z,5.40
2022-12-23T08:12:19.936Z,5.40
2022-12-23T08:14:48.935Z,5.30
2022-12-23T08:17:17.202Z,5.30
2022-12-23T08:22:13.827Z,5.40
2022-12-23T08:24:43.394Z,5.50
2022-12-23T08:27:11.945Z,5.50
2022-12-23T08:29:41.211Z,5.30
2022-12-23T08:32:09.716Z,5.70
2022-12-23T08:34:38.035Z,5.60
2022-12-23T08:37:06.472Z,5.20
2022-12-23T08:42:04.541Z,5.60
2022-12-23T08:49:29.767Z,5.80
2022-12-23T08:56:55.289Z,5.80
2022-12-23T08:59:24.860Z,5.80
2022-12-23T09:16:45.323Z,6.00
2022-12-23T09:34:07.589Z,6.20
2022-12-23T09:41:53.433Z,6.00
2022-12-23T09:44:44.318Z,5.80
2022-12-23T09:47:17.031Z,6.10
2022-12-23T09:49:51.322Z,6.40
2022-12-23T09:52:26.213Z,6.30
2022-12-23T09:54:56.183Z,6.30
2022-12-23T09:57:31.307Z,6.30
2022-12-23T10:00:06.964Z,6.30
2022-12-23T10:02:48.185Z,6.30
2022-12-23T10:05:29.441Z,6.40
2022-12-23T10:08:02.902Z,6.60
2022-12-23T10:10:36.244Z,6.30
2022-12-23T10:13:07.244Z,6.90
2022-12-23T10:15:39.995Z,6.40
2022-12-23T10:18:16.861Z,6.60
2022-12-23T10:20:52.027Z,6.30
2022-12-23T10:23:28.261Z,6.40
2022-12-23T10:25:56.553Z,6.50
2022-12-23T10:28:29.944Z,6.30
2022-12-23T10:31:31.065Z,8.90
2022-12-23T10:34:01.526Z,6.50
2022-12-23T10:36:40.637Z,6.40
2022-12-23T10:39:16.152Z,6.50
2022-12-23T10:41:53.149Z,6.50
2022-12-23T10:44:40.199Z,7.80
2022-12-23T10:47:16.897Z,6.70
2022-12-23T10:49:59.261Z,6.40
2022-12-23T10:52:32.164Z,6.40
2022-12-23T10:55:00.317Z,6.30
2022-12-23T10:57:30.555Z,6.40
2022-12-23T10:59:59.058Z,6.50
2022-12-23T11:02:45.315Z,6.50
2022-12-23T11:05:16.935Z,6.30
2022-12-23T11:07:47.991Z,6.40
2022-12-23T11:10:20.362Z,6.30
2022-12-23T11:12:50.969Z,6.40
2022-12-23T11:15:31.150Z,6.30
2022-12-23T11:18:01.019Z,6.40
2022-12-23T11:20:29.345Z,6.20
2022-12-23T11:23:02.035Z,6.30
2022-12-23T11:25:36.816Z,6.30
2022-12-23T11:28:08.818Z,6.40
2022-12-23T11:30:40.399Z,7.30
2022-12-23T11:33:22.403Z,6.20
2022-12-23T11:36:01.883Z,6.20
2022-12-23T11:38:31.853Z,6.20
2022-12-23T11:43:29.437Z,6.50
2022-12-23T11:46:19.016Z,6.40
2022-12-23T11:51:27.769Z,6.60
2022-12-23T11:54:02.731Z,6.30
2022-12-23T11:56:37.414Z,6.30
2022-12-23T11:59:08.961Z,6.40
2022-12-23T12:01:39.400Z,6.30
2022-12-23T12:04:10.275Z,6.30
2022-12-23T12:06:47.365Z,6.30
2022-12-23T12:09:21.457Z,6.60
2022-12-23T12:11:52.735Z,6.30
2022-12-23T12:14:25.851Z,6.50
2022-12-23T12:17:01.859Z,6.20
2022-12-23T12:19:36.727Z,6.20
2022-12-23T12:22:15.119Z,6.30
2022-12-23T12:24:49.784Z,6.60
2022-12-23T12:27:19.174Z,6.50
2022-12-23T12:29:51.908Z,6.40
2022-12-23T12:32:27.167Z,6.30
2022-12-23T12:35:00.191Z,6.20
2022-12-23T12:37:39.261Z,6.40
2022-12-23T12:40:19.256Z,6.40
2022-12-23T12:42:54.333Z,6.40
2022-12-23T12:45:25.308Z,6.30
2022-12-23T12:48:16.414Z,6.40
2022-12-23T12:50:53.927Z,6.40
2022-12-23T12:53:24.732Z,6.40
2022-12-23T12:55:59.547Z,6.40
2022-12-23T12:58:27.992Z,6.40
2022-12-23T13:01:14.273Z,6.50
2022-12-23T13:04:16.347Z,6.50
2022-12-23T13:06:53.973Z,6.50
2022-12-23T13:09:32.832Z,6.50
2022-12-23T13:12:15.033Z,6.60
2022-12-23T13:14:56.483Z,6.60
2022-12-23T13:17:29.907Z,6.50
2022-12-23T13:20:09.443Z,6.50
2022-12-23T13:22:38.683Z,6.50
2022-12-23T13:25:15.152Z,6.50
2022-12-23T13:27:54.311Z,6.70
2022-12-23T13:30:24.344Z,6.50
2022-12-23T13:33:12.344Z,6.50
2022-12-23T13:36:04.967Z,6.40
2022-12-23T13:39:06.836Z,6.60
2022-12-23T13:41:39.236Z,6.60
2022-12-23T13:44:11.157Z,6.60
2022-12-23T13:46:48.038Z,6.60
2022-12-23T13:49:23.605Z,6.80
2022-12-23T13:51:56.206Z,7.00
2022-12-23T13:54:37.251Z,6.70
2022-12-23T13:57:14.511Z,6.80
2022-12-23T14:00:02.989Z,6.90
2022-12-23T14:02:52.225Z,6.80
2022-12-23T14:05:33.372Z,6.80
2022-12-23T14:08:03.387Z,6.70
2022-12-23T14:10:32.600Z,6.70
2022-12-23T14:13:04.135Z,6.50
2022-12-23T14:16:11.732Z,6.60
2022-12-23T14:19:11.278Z,6.80
2022-12-23T14:21:48.610Z,6.80
2022-12-23T14:24:46.433Z,6.60
2022-12-23T14:27:33.268Z,6.60
2022-12-23T14:30:12.465Z,6.90
2022-12-23T14:32:47.691Z,6.80
2022-12-23T14:36:07.153Z,6.80
2022-12-23T14:38:36.773Z,6.90
2022-12-23T14:41:26.357Z,6.80
2022-12-23T14:43:57.293Z,6.90
2022-12-23T14:46:59.329Z,7.50
2022-12-23T14:49:41.131Z,7.70
2022-12-23T14:52:44.430Z,6.90
2022-12-23T14:55:46.075Z,6.10
2022-12-23T14:58:35.427Z,6.90
2022-12-23T15:01:08.791Z,6.90
2022-12-23T15:03:43.450Z,6.90
2022-12-23T15:08:46.264Z,7.00
2022-12-23T15:11:24.015Z,7.10
2022-12-23T15:13:54.867Z,6.90
2022-12-23T15:16:31.735Z,6.90
2022-12-23T15:19:03.352Z,7.10
2022-12-23T15:21:34.037Z,6.90
2022-12-23T15:24:02.194Z,7.90
2022-12-23T15:26:33.578Z,7.20
2022-12-23T15:29:02.166Z,7.00
2022-12-23T15:31:34.084Z,7.10
2022-12-23T15:34:11.698Z,7.10
2022-12-23T15:36:44.939Z,7.00
2022-12-23T15:39:21.085Z,7.20
2022-12-23T15:41:50.708Z,7.10
2022-12-23T15:44:21.787Z,7.20
2022-12-23T15:46:50.586Z,6.80
2022-12-23T15:49:20.352Z,7.30
2022-12-23T15:52:12.570Z,6.90
2022-12-23T15:54:45.825Z,7.20
2022-12-23T15:57:19.448Z,7.30
2022-12-23T15:59:47.792Z,7.40
2022-12-23T16:05:10.401Z,7.40
2022-12-23T16:07:41.343Z,7.30
2022-12-23T16:10:15.776Z,7.40
2022-12-23T16:12:45.766Z,7.50
2022-12-23T16:15:27.577Z,7.40
2022-12-23T16:18:14.254Z,7.40
2022-12-23T16:20:44.585Z,7.30
2022-12-23T16:23:14.215Z,7.40
2022-12-23T16:25:50.375Z,7.30
2022-12-23T16:28:24.148Z,7.40
2022-12-23T16:30:54.809Z,7.30
2022-12-23T16:33:32.124Z,7.30
2022-12-23T16:36:17.110Z,7.40
2022-12-23T16:38:45.912Z,7.30
2022-12-23T16:43:51.614Z,7.20
2022-12-23T16:46:22.860Z,7.20
2022-12-23T16:48:52.893Z,10.60
2022-12-23T16:53:55.117Z,7.10
2022-12-23T16:56:25.728Z,7.10
2022-12-23T16:58:55.726Z,7.10
2022-12-23T17:01:25.497Z,7.20
2022-12-23T17:03:55.857Z,7.00
2022-12-23T17:06:24.825Z,7.00
2022-12-23T17:08:54.241Z,7.10
2022-12-23T17:11:26.683Z,7.00
2022-12-23T17:14:03.874Z,7.00
2022-12-23T17:21:33.470Z,6.80
2022-12-23T17:24:06.467Z,6.70
2022-12-23T17:29:05.729Z,6.70
2022-12-23T17:31:35.353Z,6.80
2022-12-23T17:34:03.622Z,6.80
2022-12-23T17:41:30.971Z,6.50
2022-12-23T17:46:30.662Z,6.50
2022-12-23T17:51:28.448Z,6.50
2022-12-23T17:56:28.932Z,6.50
2022-12-23T18:01:27.464Z,6.50
2022-12-23T18:03:58.919Z,6.40
2022-12-23T18:06:29.241Z,6.30
2022-12-23T18:08:57.883Z,6.30
2022-12-23T18:11:33.654Z,6.80
2022-12-23T18:14:03.609Z,6.30
2022-12-23T18:16:32.105Z,6.10
2022-12-23T18:19:01.643Z,6.30
2022-12-23T18:21:30.570Z,6.30
2022-12-23T18:24:00.759Z,6.30
2022-12-23T18:26:29.179Z,6.30
2022-12-23T18:28:57.347Z,6.00
2022-12-23T18:31:27.310Z,6.20
2022-12-23T18:33:56.003Z,6.40
2022-12-23T18:36:28.329Z,6.20
2022-12-23T18:38:57.978Z,6.10
2022-12-23T18:41:27.428Z,6.30
2022-12-23T18:43:55.899Z,6.50
2022-12-23T18:46:24.790Z,6.30
2022-12-23T18:48:53.900Z,6.40
2022-12-23T18:51:23.351Z,6.10
2022-12-23T18:53:52.922Z,6.30
2022-12-23T18:56:22.670Z,6.30
2022-12-23T18:58:51.250Z,6.40
2022-12-23T19:01:20.068Z,6.20
2022-12-23T19:03:48.444Z,6.20
2022-12-23T19:06:17.044Z,5.90
2022-12-23T19:08:45.582Z,8.80
2022-12-23T19:11:17.741Z,6.10
2022-12-23T19:13:46.630Z,6.10
2022-12-23T19:16:16.250Z,6.10
2022-12-23T19:18:44.933Z,6.00
2022-12-23T19:21:13.341Z,5.90
2022-12-23T19:23:42.447Z,5.90
2022-12-23T19:26:11.557Z,6.30
2022-12-23T19:28:42.631Z,5.90
2022-12-23T19:31:12.651Z,6.20
2022-12-23T19:33:41.556Z,6.10
2022-12-23T19:36:10.978Z,5.80
2022-12-23T19:38:39.528Z,5.80
2022-12-23T19:41:08.280Z,6.00
2022-12-23T19:43:36.908Z,5.90
2022-12-23T19:46:08.659Z,5.70
2022-12-23T19:48:37.775Z,6.00
2022-12-23T19:51:09.837Z,6.20
2022-12-23T19:53:38.346Z,5.40
2022-12-23T19:56:15.493Z,6.50
2022-12-23T19:58:44.896Z,5.80
2022-12-23T20:01:16.393Z,5.80
2022-12-23T20:03:45.891Z,6.00
2022-12-23T20:06:19.384Z,5.60
2022-12-23T20:08:48.687Z,5.80
2022-12-23T20:11:21.142Z,5.70
2022-12-23T20:13:53.081Z,5.60
2022-12-23T20:16:23.200Z,5.60
2022-12-23T20:18:51.840Z,5.90
2022-12-23T20:21:20.680Z,5.80
2022-12-23T20:26:18.987Z,6.00
2022-12-23T20:31:18.918Z,5.70
2022-12-23T20:33:49.333Z,5.90
2022-12-23T20:36:19.595Z,5.60
2022-12-23T20:38:49.228Z,5.60
2022-12-23T20:41:19.817Z,6.30
2022-12-23T20:46:36.759Z,5.60
2022-12-23T20:49:06.343Z,5.60
2022-12-23T20:56:31.869Z,5.30
2022-12-23T20:59:02.297Z,5.80
2022-12-23T21:01:33.012Z,5.60
2022-12-23T21:04:03.174Z,5.80
2022-12-23T21:06:33.962Z,5.60
2022-12-23T21:09:04.952Z,5.60
2022-12-23T21:11:34.875Z,5.60
2022-12-23T21:14:06.893Z,5.70
2022-12-23T21:16:36.619Z,5.90
2022-12-23T21:19:06.655Z,5.70
2022-12-23T21:21:37.379Z,5.80
2022-12-23T21:26:35.753Z,5.90
2022-12-23T21:29:05.531Z,5.70
2022-12-23T21:31:35.403Z,5.80
2022-12-23T21:34:03.975Z,5.60
2022-12-23T21:36:34.224Z,5.60
2022-12-23T21:39:04.515Z,5.70
2022-12-23T21:41:36.354Z,5.60
2022-12-23T21:46:33.316Z,5.80
2022-12-23T21:49:02.684Z,5.60
2022-12-23T21:51:39.603Z,5.60
2022-12-23T21:54:11.351Z,5.90
2022-12-23T21:56:40.755Z,5.60
2022-12-23T21:59:12.488Z,5.90
2022-12-23T22:01:41.385Z,5.60
2022-12-23T22:04:09.641Z,5.60
2022-12-23T22:06:39.852Z,5.90
2022-12-23T22:09:11.905Z,5.60
2022-12-23T22:14:11.674Z,5.70
2022-12-23T22:16:39.918Z,5.70
2022-12-23T22:19:09.279Z,5.60
2022-12-23T22:21:39.627Z,5.60
2022-12-23T22:24:10.353Z,5.50
2022-12-23T22:26:40.140Z,5.60
2022-12-23T22:31:40.624Z,5.60
2022-12-23T22:34:11.979Z,5.50
2022-12-23T22:41:42.508Z,5.60
2022-12-23T22:44:13.184Z,5.60
2022-12-23T22:49:12.558Z,5.60
2022-12-23T22:51:41.678Z,8.90
2022-12-23T22:56:38.760Z,5.60
2022-12-23T22:59:08.539Z,5.90
2022-12-23T23:01:38.659Z,5.60
2022-12-23T23:06:38.575Z,5.60
2022-12-23T23:09:07.892Z,5.60
2022-12-23T23:16:34.735Z,5.60
2022-12-23T23:19:03.318Z,5.60
2022-12-23T23:28:57.597Z,5.20
2022-12-23T23:31:43.303Z,5.60
2022-12-23T23:34:14.040Z,5.60
2022-12-23T23:39:13.278Z,5.60
2022-12-23T23:51:37.377Z,5.60
2022-12-23T23:54:05.677Z,4.80
2022-12-23T23:56:38.293Z,5.20
2022-12-23T23:59:07.749Z,5.70
